createdAt,value
2018-02-02T00:02:16.511Z,3.10
2018-02-02T00:04:46.533Z,5.87
2018-02-02T00:07:15.769Z,4.13
2018-02-02T00:09:45.032Z,3.40
2018-02-02T00:12:15.037Z,5.50
2018-02-02T00:14:44.293Z,5.57
2018-02-02T00:17:13.537Z,15.73
2018-02-02T00:19:42.918Z,3.40
2018-02-02T00:22:12.153Z,5.53
2018-02-02T00:24:42.191Z,4.17
2018-02-02T00:27:11.629Z,4.20
2018-02-02T00:29:40.888Z,5.80
2018-02-02T00:32:10.897Z,10.67
2018-02-02T00:34:40.129Z,9.57
2018-02-02T00:37:09.417Z,10.83
2018-02-02T00:39:39.416Z,4.80
2018-02-02T00:42:08.665Z,4.57
2018-02-02T00:44:37.935Z,4.20
2018-02-02T00:47:08.032Z,3.23
2018-02-02T00:49:37.261Z,6.47
2018-02-02T00:52:06.534Z,17.53
2018-02-02T00:54:35.838Z,4.87
2018-02-02T00:57:05.171Z,4.57
2018-02-02T00:59:34.546Z,4.40
2018-02-02T01:02:03.864Z,10.33
2018-02-02T01:04:33.120Z,8.43
2018-02-02T01:07:02.424Z,8.63
2018-02-02T01:09:31.670Z,11.40
2018-02-02T01:12:00.924Z,7.70
2018-02-02T01:14:30.227Z,6.77
2018-02-02T01:16:59.461Z,5.60
2018-02-02T01:19:29.722Z,5.97
2018-02-02T01:21:58.972Z,17.83
2018-02-02T01:24:28.486Z,3.50
2018-02-02T01:26:57.729Z,14.20
2018-02-02T01:29:27.007Z,12.73
2018-02-02T01:31:56.431Z,5.70
2018-02-02T01:34:25.670Z,8.00
2018-02-02T01:36:54.977Z,6.97
2018-02-02T01:39:24.306Z,7.60
2018-02-02T01:41:53.603Z,4.67
2018-02-02T01:44:23.658Z,10.27
2018-02-02T01:46:53.117Z,8.80
2018-02-02T01:49:22.401Z,5.50
2018-02-02T01:51:51.677Z,7.27
2018-02-02T01:54:20.996Z,10.50
2018-02-02T01:56:50.333Z,6.77
2018-02-02T01:59:19.527Z,14.10
2018-02-02T02:01:48.817Z,9.73
2018-02-02T02:04:18.121Z,18.93
2018-02-02T02:06:47.448Z,8.07
2018-02-02T02:09:17.018Z,14.70
2018-02-02T02:11:47.134Z,7.93
2018-02-02T02:14:16.518Z,8.50
2018-02-02T02:16:45.942Z,8.53
2018-02-02T02:19:15.365Z,8.63
2018-02-02T02:21:44.789Z,11.17
2018-02-02T02:24:14.717Z,10.80
2018-02-02T02:26:44.896Z,9.93
2018-02-02T02:29:14.275Z,15.37
2018-02-02T02:31:43.606Z,7.73
2018-02-02T02:34:12.922Z,7.77
2018-02-02T02:36:43.342Z,8.60
2018-02-02T02:39:12.700Z,12.63
2018-02-02T02:41:42.087Z,13.07
2018-02-02T02:44:11.404Z,13.30
2018-02-02T02:49:16.920Z,7.17
2018-02-02T02:51:46.234Z,8.50
2018-02-02T02:54:16.272Z,8.40
2018-02-02T02:56:45.613Z,6.00
2018-02-02T02:59:14.913Z,13.33
2018-02-02T03:01:44.225Z,18.23
2018-02-02T03:04:13.533Z,17.77
2018-02-02T03:06:42.826Z,15.00
2018-02-02T03:09:12.426Z,12.47
2018-02-02T03:11:41.722Z,11.27
2018-02-02T03:14:11.018Z,8.37
2018-02-02T03:16:40.405Z,15.67
2018-02-02T03:19:09.689Z,7.23
2018-02-02T03:21:38.969Z,13.57
2018-02-02T03:24:08.278Z,9.60
2018-02-02T03:26:37.696Z,10.20
2018-02-02T03:29:07.780Z,14.03
2018-02-02T03:31:37.060Z,7.30
2018-02-02T03:34:06.521Z,9.07
2018-02-02T03:36:36.037Z,8.47
2018-02-02T03:39:05.340Z,7.47
2018-02-02T03:41:34.682Z,7.50
2018-02-02T03:44:03.982Z,17.37
2018-02-02T03:46:33.360Z,9.60
2018-02-02T03:49:02.665Z,21.50
2018-02-02T03:51:31.994Z,9.13
2018-02-02T03:54:01.306Z,7.57
2018-02-02T03:56:30.618Z,8.03
2018-02-02T03:58:59.908Z,15.20
2018-02-02T04:01:29.227Z,21.43
2018-02-02T04:03:58.501Z,8.40
2018-02-02T04:06:27.795Z,11.47
2018-02-02T04:08:57.109Z,7.60
2018-02-02T04:11:26.386Z,13.03
2018-02-02T04:13:55.698Z,8.20
2018-02-02T04:16:24.990Z,7.50
2018-02-02T04:18:54.295Z,7.80
2018-02-02T04:21:23.593Z,17.33
2018-02-02T04:23:53.725Z,8.00
2018-02-02T04:26:23.037Z,7.70
2018-02-02T04:28:52.357Z,8.63
2018-02-02T04:31:21.677Z,7.70
2018-02-02T04:33:50.989Z,12.30
2018-02-02T04:36:20.289Z,6.20
2018-02-02T04:38:49.614Z,14.73
2018-02-02T04:41:18.902Z,5.13
2018-02-02T04:43:48.175Z,12.57
2018-02-02T04:46:17.490Z,8.93
2018-02-02T04:48:46.744Z,17.37
2018-02-02T04:51:16.115Z,7.50
2018-02-02T04:53:46.085Z,7.53
2018-02-02T04:56:16.010Z,12.50
2018-02-02T04:58:46.016Z,8.83
2018-02-02T05:01:15.249Z,10.87
2018-02-02T05:03:44.503Z,6.50
2018-02-02T05:06:13.759Z,6.73
2018-02-02T05:08:42.992Z,11.23
2018-02-02T05:11:12.242Z,8.33
2018-02-02T05:13:41.486Z,5.60
2018-02-02T05:16:10.721Z,8.40
2018-02-02T05:18:39.970Z,6.37
2018-02-02T05:21:09.244Z,13.07
2018-02-02T05:23:38.483Z,11.60
2018-02-02T05:26:08.439Z,12.23
2018-02-02T05:28:38.440Z,32.67
2018-02-02T05:31:07.703Z,26.43
2018-02-02T05:33:36.940Z,11.73
2018-02-02T05:36:06.207Z,12.83
2018-02-02T05:38:35.557Z,12.87
2018-02-02T05:41:05.584Z,24.87
2018-02-02T05:43:34.840Z,8.30
2018-02-02T05:46:04.081Z,16.67
2018-02-02T05:48:34.256Z,14.00
2018-02-02T05:51:03.565Z,13.00
2018-02-02T05:53:32.801Z,15.23
2018-02-02T05:56:02.817Z,10.97
2018-02-02T05:58:32.079Z,19.52
2018-02-02T06:01:01.337Z,10.43
2018-02-02T06:03:30.590Z,25.20
2018-02-02T06:05:59.881Z,11.10
2018-02-02T06:08:29.136Z,23.37
2018-02-02T06:10:59.152Z,13.53
2018-02-02T06:13:28.455Z,11.33
2018-02-02T06:15:57.674Z,26.60
2018-02-02T06:18:27.157Z,11.00
2018-02-02T06:20:57.191Z,20.83
2018-02-02T06:23:26.455Z,13.23
2018-02-02T06:25:56.453Z,17.90
2018-02-02T06:28:25.703Z,8.97
2018-02-02T06:30:54.958Z,13.03
2018-02-02T06:33:24.209Z,16.17
2018-02-02T06:35:54.191Z,22.03
2018-02-02T06:38:23.422Z,11.47
2018-02-02T06:40:52.681Z,15.57
2018-02-02T06:43:21.919Z,13.90
2018-02-02T06:45:51.188Z,24.13
2018-02-02T06:48:21.936Z,23.07
2018-02-02T06:50:51.993Z,16.13
2018-02-02T06:53:21.243Z,23.07
2018-02-02T06:55:50.502Z,14.40
2018-02-02T06:58:19.871Z,13.00
2018-02-02T07:00:50.088Z,18.10
2018-02-02T07:03:19.476Z,24.03
2018-02-02T07:05:48.729Z,18.03
2018-02-02T07:08:17.971Z,11.60
2018-02-02T07:10:47.220Z,11.60
2018-02-02T07:13:16.493Z,14.13
2018-02-02T07:15:46.506Z,17.50
2018-02-02T07:18:15.777Z,15.10
2018-02-02T07:20:45.025Z,14.97
2018-02-02T07:23:14.375Z,15.50
2018-02-02T07:25:43.636Z,10.57
2018-02-02T07:28:12.873Z,24.93
2018-02-02T07:30:42.130Z,18.90
2018-02-02T07:33:11.360Z,17.13
2018-02-02T07:35:40.620Z,15.53
2018-02-02T07:38:10.635Z,18.90
2018-02-02T07:40:40.023Z,12.43
2018-02-02T07:43:09.292Z,17.03
2018-02-02T07:45:38.542Z,14.73
2018-02-02T07:48:07.796Z,15.17
2018-02-02T07:50:37.035Z,16.07
2018-02-02T07:53:07.073Z,16.07
2018-02-02T07:55:36.316Z,14.97
2018-02-02T07:58:05.571Z,21.67
2018-02-02T08:03:39.533Z,19.57
2018-02-02T08:06:08.769Z,24.97
2018-02-02T08:08:38.400Z,15.63
2018-02-02T08:11:08.412Z,22.00
2018-02-02T08:13:37.706Z,18.30
2018-02-02T08:16:06.975Z,19.00
2018-02-02T08:18:36.213Z,17.20
2018-02-02T08:21:05.484Z,21.37
2018-02-02T08:23:36.131Z,13.90
2018-02-02T08:26:07.584Z,20.97
2018-02-02T08:28:36.943Z,16.07
2018-02-02T08:31:06.201Z,21.20
2018-02-02T08:33:36.196Z,23.40
2018-02-02T08:36:05.586Z,23.87
2018-02-02T08:38:35.018Z,16.17
2018-02-02T08:41:04.436Z,17.33
2018-02-02T08:43:34.574Z,10.60
2018-02-02T08:46:03.821Z,19.73
2018-02-02T08:48:33.089Z,10.23
2018-02-02T08:51:02.336Z,5.90
2018-02-02T08:53:31.598Z,17.10
2018-02-02T08:56:00.837Z,9.30
2018-02-02T08:58:30.093Z,8.07
2018-02-02T09:01:04.765Z,7.57
2018-02-02T09:03:34.012Z,6.27
2018-02-02T09:06:03.255Z,5.80
2018-02-02T09:08:32.498Z,9.60
2018-02-02T09:11:02.531Z,5.97
2018-02-02T09:13:31.996Z,7.60
2018-02-02T09:16:01.275Z,7.37
2018-02-02T09:18:31.245Z,7.93
2018-02-02T09:21:00.469Z,4.27
2018-02-02T09:23:29.724Z,6.53
2018-02-02T09:25:59.753Z,7.47
2018-02-02T09:28:29.149Z,9.53
2018-02-02T09:30:59.174Z,12.53
2018-02-02T09:33:28.577Z,5.30
2018-02-02T09:35:58.645Z,9.03
2018-02-02T09:38:27.897Z,6.33
2018-02-02T09:40:57.116Z,5.70
2018-02-02T09:43:26.390Z,7.83
2018-02-02T09:45:55.618Z,7.47
2018-02-02T09:48:24.882Z,5.30
2018-02-02T09:50:54.109Z,5.77
2018-02-02T09:53:24.172Z,4.97
2018-02-02T09:55:53.415Z,8.40
2018-02-02T09:58:23.030Z,5.50
2018-02-02T10:00:53.034Z,5.87
2018-02-02T10:03:22.284Z,8.07
2018-02-02T10:05:52.224Z,6.27
2018-02-02T10:08:21.470Z,4.47
2018-02-02T10:10:51.498Z,6.87
2018-02-02T10:13:20.750Z,3.90
2018-02-02T10:15:50.062Z,3.50
2018-02-02T10:18:19.336Z,5.77
2018-02-02T10:20:48.561Z,4.70
2018-02-02T10:23:17.803Z,8.13
2018-02-02T10:25:47.047Z,6.40
2018-02-02T10:28:17.823Z,5.97
2018-02-02T10:30:47.098Z,2.87
2018-02-02T10:33:16.355Z,5.60
2018-02-02T10:35:45.621Z,3.50
2018-02-02T10:38:14.881Z,6.53
2018-02-02T10:40:44.121Z,4.87
2018-02-02T10:43:13.392Z,4.10
2018-02-02T10:45:42.706Z,2.50
2018-02-02T10:48:12.166Z,3.33
2018-02-02T10:50:41.414Z,3.60
2018-02-02T10:53:10.686Z,3.67
2018-02-02T10:55:39.899Z,4.73
2018-02-02T10:58:09.145Z,5.83
2018-02-02T11:00:43.846Z,2.43
2018-02-02T11:03:32.849Z,4.83
2018-02-02T11:06:02.099Z,3.00
2018-02-02T11:08:31.501Z,3.27
2018-02-02T11:11:00.780Z,4.00
2018-02-02T11:13:30.001Z,2.97
2018-02-02T11:15:59.310Z,6.80
2018-02-02T11:18:28.505Z,6.90
2018-02-02T11:20:57.743Z,4.90
2018-02-02T11:23:26.988Z,5.60
2018-02-02T11:25:56.235Z,12.03
2018-02-02T11:28:26.246Z,4.50
2018-02-02T11:30:55.476Z,4.43
2018-02-02T11:33:24.847Z,3.03
2018-02-02T11:35:54.182Z,4.40
2018-02-02T11:38:23.433Z,9.50
2018-02-02T11:40:52.684Z,11.40
2018-02-02T11:43:21.913Z,4.53
2018-02-02T11:45:51.189Z,9.13
2018-02-02T11:48:20.439Z,3.40
2018-02-02T11:50:49.701Z,8.03
2018-02-02T11:53:18.936Z,7.60
2018-02-02T11:55:48.439Z,6.60
2018-02-02T11:58:17.693Z,11.03
2018-02-02T12:00:46.938Z,6.67
2018-02-02T12:03:16.173Z,9.73
2018-02-02T12:05:46.205Z,9.70
2018-02-02T12:08:15.480Z,14.67
2018-02-02T12:10:44.731Z,11.20
2018-02-02T12:13:14.002Z,5.70
2018-02-02T12:15:43.242Z,8.67
2018-02-02T12:18:12.489Z,4.40
2018-02-02T12:20:42.600Z,10.20
2018-02-02T12:23:17.350Z,4.87
2018-02-02T12:25:54.850Z,11.43
2018-02-02T12:28:30.013Z,6.73
2018-02-02T12:31:04.668Z,4.87
2018-02-02T12:36:35.691Z,4.60
2018-02-02T12:39:04.930Z,5.30
2018-02-02T12:41:34.414Z,6.07
2018-02-02T12:44:03.659Z,5.90
2018-02-02T12:46:32.958Z,8.13
2018-02-02T12:49:06.665Z,6.43
2018-02-02T12:51:35.901Z,6.10
2018-02-02T12:54:05.174Z,4.40
2018-02-02T12:56:34.385Z,6.60
2018-02-02T12:59:03.635Z,5.00
2018-02-02T13:01:32.887Z,6.00
2018-02-02T13:04:02.121Z,4.30
2018-02-02T13:06:31.365Z,4.53
2018-02-02T13:09:01.370Z,11.27
2018-02-02T13:11:30.633Z,5.77
2018-02-02T13:13:59.871Z,5.80
2018-02-02T13:16:29.105Z,6.70
2018-02-02T13:18:58.357Z,4.20
2018-02-02T13:21:27.608Z,3.87
2018-02-02T13:23:56.878Z,5.50
2018-02-02T13:26:26.136Z,3.97
2018-02-02T13:28:55.400Z,9.70
2018-02-02T13:31:24.674Z,6.57
2018-02-02T13:33:53.918Z,7.30
2018-02-02T13:36:23.182Z,5.80
2018-02-02T13:38:52.432Z,5.63
2018-02-02T13:41:21.711Z,5.47
2018-02-02T13:43:51.723Z,5.60
2018-02-02T13:46:21.746Z,3.47
2018-02-02T13:48:50.995Z,3.40
2018-02-02T13:51:20.244Z,8.90
2018-02-02T13:53:50.262Z,5.93
2018-02-02T13:56:19.478Z,4.27
2018-02-02T13:58:48.820Z,6.97
2018-02-02T14:01:18.064Z,4.83
2018-02-02T14:03:48.082Z,3.43
2018-02-02T14:06:17.309Z,4.97
2018-02-02T14:08:46.765Z,3.87
2018-02-02T14:11:16.772Z,7.73
2018-02-02T14:13:46.038Z,9.17
2018-02-02T14:16:15.285Z,9.30
2018-02-02T14:18:44.529Z,7.00
2018-02-02T14:21:13.743Z,5.83
2018-02-02T14:23:42.989Z,6.10
2018-02-02T14:26:12.992Z,3.13
2018-02-02T14:28:42.228Z,5.43
2018-02-02T14:31:11.494Z,4.20
2018-02-02T14:33:40.741Z,3.97
2018-02-02T14:36:10.018Z,5.67
2018-02-02T14:38:39.300Z,2.53
2018-02-02T14:41:08.523Z,10.60
2018-02-02T14:43:38.561Z,3.97
2018-02-02T14:46:07.781Z,16.73
2018-02-02T14:48:37.012Z,3.83
2018-02-02T14:51:06.266Z,2.93
2018-02-02T14:53:35.506Z,6.40
2018-02-02T14:56:04.903Z,3.70
2018-02-02T14:58:34.154Z,10.23
2018-02-02T15:01:03.409Z,7.00
2018-02-02T15:03:32.644Z,5.40
2018-02-02T15:06:02.666Z,7.80
2018-02-02T15:08:31.888Z,6.10
2018-02-02T15:11:01.152Z,16.33
2018-02-02T15:13:31.156Z,18.27
2018-02-02T15:16:00.439Z,17.40
2018-02-02T15:18:29.685Z,5.80
2018-02-02T15:20:58.912Z,5.90
2018-02-02T15:23:28.154Z,4.77
2018-02-02T15:25:57.404Z,12.03
2018-02-02T15:28:26.641Z,13.17
2018-02-02T15:30:55.888Z,9.47
2018-02-02T15:33:25.189Z,23.73
2018-02-02T15:35:54.433Z,14.47
2018-02-02T15:38:23.688Z,16.40
2018-02-02T15:40:52.936Z,15.87
2018-02-02T15:43:22.227Z,8.37
2018-02-02T15:45:51.468Z,3.50
2018-02-02T15:48:20.714Z,3.80
2018-02-02T15:50:49.965Z,2.50
2018-02-02T15:53:19.286Z,3.67
2018-02-02T15:55:49.297Z,2.63
2018-02-02T15:58:18.570Z,2.67
2018-02-02T16:00:47.817Z,5.00
2018-02-02T16:03:17.098Z,2.87
2018-02-02T16:05:47.102Z,2.30
2018-02-02T16:08:16.349Z,5.83
2018-02-02T16:10:45.598Z,3.07
2018-02-02T16:13:14.869Z,4.67
2018-02-02T16:15:44.125Z,2.80
2018-02-02T16:18:13.365Z,3.13
2018-02-02T16:20:42.610Z,1.93
2018-02-02T16:23:11.841Z,2.93
2018-02-02T16:25:41.091Z,4.10
2018-02-02T16:28:10.519Z,3.20
2018-02-02T16:30:39.768Z,2.47
2018-02-02T16:33:09.067Z,6.43
2018-02-02T16:35:38.305Z,2.80
2018-02-02T16:38:07.561Z,1.50
2018-02-02T16:40:36.787Z,2.07
2018-02-02T16:43:06.045Z,3.30
2018-02-02T16:45:35.323Z,1.80
2018-02-02T16:48:04.593Z,2.40
2018-02-02T16:50:33.814Z,1.83
2018-02-02T16:53:03.208Z,2.27
2018-02-02T16:55:32.466Z,1.90
2018-02-02T16:58:01.699Z,8.10
2018-02-02T17:00:30.924Z,1.47
2018-02-02T17:03:00.173Z,2.83
2018-02-02T17:05:29.446Z,3.47
2018-02-02T17:07:59.505Z,1.90
2018-02-02T17:10:28.729Z,3.20
2018-02-02T17:12:58.047Z,1.73
2018-02-02T17:15:27.234Z,2.47
2018-02-02T17:17:56.482Z,4.87
2018-02-02T17:20:25.737Z,2.20
2018-02-02T17:22:54.993Z,2.47
2018-02-02T17:25:24.237Z,2.10
2018-02-02T17:27:53.505Z,6.93
2018-02-02T17:30:22.755Z,3.10
2018-02-02T17:32:52.756Z,5.43
2018-02-02T17:35:22.002Z,3.90
2018-02-02T17:37:51.238Z,2.67
2018-02-02T17:40:20.489Z,3.63
2018-02-02T17:42:49.992Z,2.23
2018-02-02T17:45:19.224Z,2.80
2018-02-02T17:47:48.468Z,2.93
2018-02-02T17:50:17.717Z,3.50
2018-02-02T17:52:47.004Z,5.50
2018-02-02T17:55:16.253Z,2.97
2018-02-02T17:57:45.517Z,3.23
2018-02-02T18:00:14.817Z,4.17
2018-02-02T18:02:54.756Z,4.80
2018-02-02T18:05:23.992Z,8.30
2018-02-02T18:07:53.255Z,4.00
2018-02-02T18:10:23.282Z,3.30
2018-02-02T18:12:52.582Z,3.20
2018-02-02T18:15:22.606Z,3.43
2018-02-02T18:17:51.838Z,2.90
2018-02-02T18:20:21.113Z,3.37
2018-02-02T18:22:50.390Z,3.33
2018-02-02T18:25:20.448Z,2.97
2018-02-02T18:27:49.702Z,3.70
2018-02-02T18:30:18.965Z,3.80
2018-02-02T18:32:48.242Z,3.30
2018-02-02T18:35:17.518Z,3.70
2018-02-02T18:37:47.541Z,5.83
2018-02-02T18:40:16.801Z,6.13
2018-02-02T18:42:46.064Z,5.33
2018-02-02T18:45:15.535Z,6.70
2018-02-02T18:47:44.855Z,5.00
2018-02-02T18:50:14.211Z,5.20
2018-02-02T18:52:43.480Z,5.27
2018-02-02T18:55:12.789Z,3.67
2018-02-02T18:57:42.085Z,12.90
2018-02-02T19:00:11.454Z,5.40
2018-02-02T19:02:40.725Z,6.90
2018-02-02T19:05:10.932Z,6.87
2018-02-02T19:07:40.946Z,3.47
2018-02-02T19:10:10.481Z,5.90
2018-02-02T19:12:39.966Z,5.67
2018-02-02T19:15:09.253Z,8.27
2018-02-02T19:17:38.537Z,4.53
2018-02-02T19:20:07.824Z,4.20
2018-02-02T19:22:37.108Z,2.83
2018-02-02T19:25:06.384Z,3.17
2018-02-02T19:27:35.749Z,4.93
2018-02-02T19:30:05.079Z,3.30
2018-02-02T19:32:34.430Z,5.90
2018-02-02T19:35:03.800Z,4.77
2018-02-02T19:37:33.123Z,2.97
2018-02-02T19:40:03.188Z,2.97
2018-02-02T19:42:32.491Z,3.27
2018-02-02T19:45:01.783Z,4.00
2018-02-02T19:47:31.202Z,2.77
2018-02-02T19:50:00.486Z,4.40
2018-02-02T19:52:29.766Z,3.90
2018-02-02T19:54:59.102Z,3.00
2018-02-02T19:57:28.389Z,13.43
2018-02-02T19:59:57.749Z,4.77
2018-02-02T20:02:27.009Z,3.27
2018-02-02T20:04:56.377Z,2.60
2018-02-02T20:07:25.737Z,3.40
2018-02-02T20:09:54.967Z,2.27
2018-02-02T20:12:24.276Z,3.37
2018-02-02T20:14:53.560Z,2.87
2018-02-02T20:17:22.853Z,1.83
2018-02-02T20:19:52.156Z,2.13
2018-02-02T20:22:21.494Z,2.80
2018-02-02T20:24:50.746Z,1.90
2018-02-02T20:27:20.082Z,2.03
2018-02-02T20:29:49.494Z,1.97
2018-02-02T20:32:20.680Z,3.50
2018-02-02T20:34:49.949Z,2.27
2018-02-02T20:37:20.224Z,6.47
2018-02-02T20:39:50.196Z,1.47
2018-02-02T20:42:19.498Z,1.80
2018-02-02T20:44:48.780Z,2.00
2018-02-02T20:47:19.124Z,2.10
2018-02-02T20:49:48.516Z,1.90
2018-02-02T20:52:17.811Z,1.57
2018-02-02T20:54:47.268Z,1.80
2018-02-02T20:57:16.587Z,2.43
2018-02-02T20:59:45.909Z,1.60
2018-02-02T21:02:16.059Z,1.63
2018-02-02T21:04:45.502Z,2.07
2018-02-02T21:07:14.867Z,2.10
2018-02-02T21:09:44.334Z,2.70
2018-02-02T21:12:14.401Z,5.37
2018-02-02T21:14:43.778Z,2.47
2018-02-02T21:17:13.318Z,3.60
2018-02-02T21:19:43.446Z,5.27
2018-02-02T21:22:12.770Z,9.90
2018-02-02T21:24:42.416Z,9.30
2018-02-02T21:27:13.237Z,5.63
2018-02-02T21:29:43.355Z,6.70
2018-02-02T21:32:13.729Z,9.30
2018-02-02T21:34:43.769Z,5.23
2018-02-02T21:37:13.081Z,2.40
2018-02-02T21:39:42.415Z,3.60
2018-02-02T21:42:12.541Z,6.07
2018-02-02T21:44:43.092Z,6.20
2018-02-02T21:47:12.489Z,9.83
2018-02-02T21:49:41.949Z,6.80
2018-02-02T21:52:11.339Z,3.57
2018-02-02T21:54:40.574Z,3.90
2018-02-02T21:57:10.498Z,5.50
2018-02-02T21:59:40.654Z,7.17
2018-02-02T22:02:10.019Z,8.70
2018-02-02T22:04:40.303Z,4.57
2018-02-02T22:07:10.977Z,6.20
2018-02-02T22:09:40.981Z,6.70
2018-02-02T22:12:10.233Z,6.37
2018-02-02T22:14:39.465Z,4.97
2018-02-02T22:17:08.758Z,4.87
2018-02-02T22:19:38.018Z,5.40
2018-02-02T22:22:07.261Z,17.77
2018-02-02T22:24:36.526Z,8.20
2018-02-02T22:27:05.741Z,6.03
2018-02-02T22:29:35.161Z,5.53
2018-02-02T22:32:04.425Z,5.67
2018-02-02T22:34:33.696Z,6.93
2018-02-02T22:37:02.961Z,6.50
2018-02-02T22:39:32.195Z,10.30
2018-02-02T22:42:01.436Z,15.07
2018-02-02T22:44:30.700Z,18.97
2018-02-02T22:47:00.716Z,17.13
2018-02-02T22:49:29.946Z,6.87
2018-02-02T22:51:59.206Z,10.50
2018-02-02T22:54:28.535Z,10.70
2018-02-02T22:56:58.581Z,9.37
2018-02-02T22:59:28.090Z,9.30
2018-02-02T23:01:57.324Z,5.70
2018-02-02T23:04:26.581Z,15.20
2018-02-02T23:06:55.825Z,10.07
2018-02-02T23:09:25.089Z,14.03
2018-02-02T23:11:55.156Z,11.30
2018-02-02T23:14:24.413Z,11.10
2018-02-02T23:16:54.449Z,10.73
2018-02-02T23:19:23.707Z,7.27
2018-02-02T23:21:52.969Z,9.93
2018-02-02T23:24:22.242Z,4.50
2018-02-02T23:26:51.510Z,7.50
2018-02-02T23:29:20.736Z,6.57
2018-02-02T23:31:49.980Z,5.10
2018-02-02T23:34:19.252Z,6.13
2018-02-02T23:36:48.564Z,5.80
2018-02-02T23:39:17.832Z,4.50
2018-02-02T23:41:47.084Z,4.60
2018-02-02T23:44:17.375Z,6.57
2018-02-02T23:46:46.609Z,4.80
2018-02-02T23:49:16.634Z,5.70
2018-02-02T23:51:45.872Z,6.43
2018-02-02T23:54:15.138Z,6.27
2018-02-02T23:56:44.385Z,5.47
2018-02-02T23:59:13.649Z,8.50
